Time;durP1;ratioP1;P1;durP2;ratioP2;P2;SDS_P1;SDS_P2;PMS_P1;PMS_P2;Temp;Humidity;BMP_temperature;BMP_pressure;BME280_temperature;BME280_humidity;BME280_pressure;Samples;Min_cycle;Max_cycle;Signal;HPM_P1;HPM_P2
2022/10/09 00:02:01;;;;;;;2.22;1.05;;;;;;;9.93;78.24;102652.69;5035845;28;107358;-30
2022/10/09 00:04:26;;;;;;;5.13;1.00;;;;;;;9.91;78.13;102652.72;5036385;27;96841;-30
2022/10/09 00:06:52;;;;;;;1.33;0.85;;;;;;;9.93;78.21;102652.69;5035261;28;112661;-31
2022/10/09 00:09:18;;;;;;;4.38;0.80;;;;;;;9.89;78.02;102646.50;5036306;28;97756;-30
2022/10/09 00:11:43;;;;;;;2.33;0.90;;;;;;;9.92;78.07;102648.22;5036435;28;96489;-31
2022/10/09 00:14:09;;;;;;;1.00;0.80;;;;;;;9.88;77.95;102644.72;5035984;27;96727;-31
2022/10/09 00:16:34;;;;;;;2.67;0.80;;;;;;;9.86;78.23;102652.00;5035408;28;106036;-30
2022/10/09 00:19:00;;;;;;;5.88;0.75;;;;;;;9.86;78.02;102646.56;5035783;27;99182;-30
2022/10/09 00:21:28;;;;;;;1.48;0.82;;;;;;;9.84;77.91;102648.44;5036188;27;96618;-30
2022/10/09 00:23:55;;;;;;;4.63;0.90;;;;;;;9.84;77.88;102647.56;5035097;28;96932;-30
2022/10/09 00:26:21;;;;;;;0.73;0.47;;;;;;;9.82;77.89;102660.25;5034423;28;100623;-30
2022/10/09 00:28:48;;;;;;;5.88;1.23;;;;;;;9.79;77.99;102656.69;5034452;28;101045;-31
2022/10/09 00:31:14;;;;;;;2.40;0.95;;;;;;;9.76;77.95;102647.78;5033785;27;96743;-32
2022/10/09 00:33:39;;;;;;;0.95;0.40;;;;;;;9.77;78.06;102653.16;5034217;28;96819;-30
2022/10/09 00:36:08;;;;;;;3.70;1.00;;;;;;;9.75;77.92;102651.44;5035630;27;102096;-32
2022/10/09 00:38:33;;;;;;;1.15;0.70;;;;;;;9.72;78.61;102652.38;5034180;28;99021;-31
2022/10/09 00:40:59;;;;;;;3.67;0.63;;;;;;;9.67;78.04;102646.22;5035777;27;96794;-32
2022/10/09 00:43:45;;;;;;;1.38;0.98;;;;;;;9.67;78.76;102651.63;5035940;27;96786;-30
2022/10/09 00:46:23;;;;;;;1.80;0.82;;;;;;;9.67;78.60;102651.63;5033742;28;99333;-31
2022/10/09 00:48:57;;;;;;;6.10;0.85;;;;;;;9.62;78.59;102647.31;5034441;28;100771;-30
2022/10/09 00:51:22;;;;;;;1.38;0.80;;;;;;;9.63;78.42;102649.06;5034360;28;96547;-32
2022/10/09 00:53:48;;;;;;;3.05;1.17;;;;;;;9.59;79.02;102642.88;5035840;28;96769;-31
2022/10/09 00:56:13;;;;;;;2.63;1.10;;;;;;;9.58;78.38;102641.06;5034692;27;98401;-30
2022/10/09 00:58:39;;;;;;;3.17;1.23;;;;;;;9.60;78.77;102647.34;5035401;28;97891;-30
2022/10/09 01:01:04;;;;;;;1.35;0.88;;;;;;;9.57;78.87;102650.13;5035693;27;96610;-33
2022/10/09 01:03:29;;;;;;;2.40;0.88;;;;;;;9.56;79.02;102641.13;5035700;27;96733;-30
2022/10/09 01:06:01;;;;;;;2.45;0.90;;;;;;;9.57;78.95;102644.72;5033076;28;122851;-30
2022/10/09 01:08:48;;;;;;;2.30;1.10;;;;;;;9.56;78.79;102642.97;5033796;28;100850;-31
2022/10/09 01:11:40;;;;;;;4.20;1.48;;;;;;;9.54;79.16;102643.00;5035581;28;96547;-31
2022/10/09 01:14:08;;;;;;;1.23;0.85;;;;;;;9.55;79.11;102643.88;5034195;28;96805;-31
2022/10/09 01:16:43;;;;;;;1.60;0.82;;;;;;;9.55;79.01;102643.88;5034933;27;99425;-31
2022/10/09 01:19:23;;;;;;;2.65;1.35;;;;;;;9.53;79.16;102632.22;5033620;28;100521;-30
2022/10/09 01:21:56;;;;;;;2.08;1.00;;;;;;;9.51;79.35;102644.88;5033442;28;96679;-31
2022/10/09 01:24:35;;;;;;;4.80;1.15;;;;;;;9.52;79.34;102639.44;5035398;28;96684;-31
2022/10/09 01:27:20;;;;;;;3.90;1.00;;;;;;;9.55;79.47;102631.22;5033721;28;101067;-31
2022/10/09 01:29:54;;;;;;;2.08;0.85;;;;;;;9.56;79.22;102626.72;5034814;28;98799;-31
2022/10/09 01:32:25;;;;;;;1.45;1.10;;;;;;;9.53;79.16;102624.09;5033788;28;96593;-31
2022/10/09 01:34:52;;;;;;;2.03;1.20;;;;;;;9.53;79.39;102625.00;5033704;28;96820;-30
2022/10/09 01:37:21;;;;;;;1.80;1.15;;;;;;;9.53;79.30;102632.22;5033404;28;100800;-31
2022/10/09 01:39:47;;;;;;;2.42;1.40;;;;;;;9.52;78.98;102625.03;5033183;28;100727;-31
2022/10/09 01:42:14;;;;;;;3.30;1.48;;;;;;;9.49;79.15;102626.00;5033558;28;96613;-31
2022/10/09 01:44:40;;;;;;;1.13;1.00;;;;;;;9.50;78.80;102621.47;5032111;28;96908;-30
2022/10/09 01:47:09;;;;;;;5.40;1.30;;;;;;;9.47;79.24;102618.88;5034040;27;98974;-32
2022/10/09 01:49:49;;;;;;;1.35;0.80;;;;;;;9.48;79.29;102621.50;5033139;28;100486;-31
2022/10/09 01:52:45;;;;;;;3.50;0.75;;;;;;;9.46;79.36;102614.38;5033234;28;96762;-30
2022/10/09 01:55:35;;;;;;;0.93;0.77;;;;;;;9.43;79.21;102611.75;5024893;28;96831;-31
2022/10/09 01:58:22;;;;;;;1.98;0.93;;;;;;;9.42;79.20;102601.91;5033049;28;99966;-31
2022/10/09 02:00:55;;;;;;;2.13;1.13;;;;;;;9.39;79.33;102600.16;5034265;27;99115;-30
2022/10/09 02:03:24;;;;;;;4.43;1.38;;;;;;;9.32;79.27;102588.63;5033509;28;96564;-30
2022/10/09 02:05:52;;;;;;;2.60;0.90;;;;;;;9.32;79.30;102585.03;5033747;28;96848;-32
2022/10/09 02:08:19;;;;;;;3.75;1.20;;;;;;;9.31;79.63;102588.66;5034308;27;99249;-31
2022/10/09 02:10:48;;;;;;;2.08;1.20;;;;;;;9.31;79.29;102585.97;5032816;28;100913;-30
2022/10/09 02:13:14;;;;;;;2.70;0.95;;;;;;;9.29;79.49;102585.09;5032611;28;96630;-31
2022/10/09 02:15:55;;;;;;;2.25;1.05;;;;;;;9.29;79.62;102586.00;5034043;28;96903;-31
2022/10/09 02:18:39;;;;;;;0.95;0.82;;;;;;;9.29;79.35;102586.00;5034524;28;97528;-30
2022/10/09 02:21:14;;;;;;;1.27;0.68;;;;;;;9.28;79.71;102577.94;5032974;28;100545;-31
2022/10/09 02:23:43;;;;;;;2.80;1.05;;;;;;;9.28;79.14;102586.06;5033038;28;96610;-31
2022/10/09 02:26:09;;;;;;;3.95;1.10;;;;;;;9.24;79.63;102573.53;5033037;28;96826;-30
2022/10/09 02:28:35;;;;;;;3.83;1.15;;;;;;;9.24;79.59;102579.81;5032545;28;101630;-31
2022/10/09 02:31:21;;;;;;;4.28;1.17;;;;;;;9.24;79.59;102577.13;5032963;28;101124;-31
2022/10/09 02:33:54;;;;;;;3.40;1.02;;;;;;;9.24;79.68;102569.00;5032965;28;96631;-30
2022/10/09 02:36:19;;;;;;;1.10;0.70;;;;;;;9.21;79.68;102568.22;5032900;28;96739;-32
2022/10/09 02:38:44;;;;;;;6.40;1.02;;;;;;;9.18;79.50;102571.03;5033638;27;97368;-30
2022/10/09 02:41:10;;;;;;;1.30;0.80;;;;;;;9.20;79.86;102571.84;5033118;27;116625;-30
2022/10/09 02:43:35;;;;;;;0.80;0.70;;;;;;;9.20;79.86;102569.13;5033508;28;109974;-30
2022/10/09 02:46:00;;;;;;;1.00;0.63;;;;;;;9.18;79.86;102571.03;5033519;28;99788;-31
2022/10/09 02:48:26;;;;;;;5.82;0.93;;;;;;;9.17;79.71;102570.13;5033188;28;120269;-30
2022/10/09 02:50:51;;;;;;;3.10;1.25;;;;;;;9.16;79.59;102565.66;5033452;28;108224;-30
2022/10/09 02:53:16;;;;;;;2.72;0.70;;;;;;;9.13;79.57;102563.91;5033696;28;107700;-31
2022/10/09 02:55:41;;;;;;;1.25;0.77;;;;;;;9.11;80.14;102568.47;5035930;27;100941;-30
2022/10/09 02:58:07;;;;;;;4.20;0.80;;;;;;;9.10;80.02;102565.81;5036825;28;116121;-31
2022/10/09 03:00:32;;;;;;;1.15;0.70;;;;;;;9.10;80.18;102576.63;5037218;27;98398;-30
2022/10/09 03:02:57;;;;;;;1.80;0.77;;;;;;;9.06;79.99;102566.84;5036783;28;99456;-30
2022/10/09 03:05:22;;;;;;;1.35;0.90;;;;;;;9.08;80.16;102570.38;5036696;28;114911;-30
2022/10/09 03:07:50;;;;;;;0.63;0.63;;;;;;;9.03;79.96;102556.97;5037081;28;106545;-31
2022/10/09 03:10:17;;;;;;;1.45;0.80;;;;;;;9.04;79.80;102557.88;5036954;27;99249;-30
2022/10/09 03:12:43;;;;;;;4.68;1.20;;;;;;;9.02;79.70;102551.63;5035873;28;96619;-30
2022/10/09 03:15:09;;;;;;;1.05;0.73;;;;;;;8.99;79.76;102554.44;5036964;27;96732;-31
2022/10/09 03:17:35;;;;;;;3.08;0.82;;;;;;;9.01;79.95;102555.25;5036707;27;101120;-31
2022/10/09 03:20:00;;;;;;;5.80;0.85;;;;;;;9.02;79.92;102548.94;5036746;28;110048;-30
2022/10/09 03:22:25;;;;;;;2.55;0.63;;;;;;;9.02;80.02;102555.22;5036695;28;105714;-30
2022/10/09 03:24:50;;;;;;;3.90;1.45;;;;;;;9.00;80.54;102554.38;5036702;27;99816;-30
2022/10/09 03:27:16;;;;;;;1.00;0.80;;;;;;;8.98;80.60;102552.63;5036379;28;99552;-31
2022/10/09 03:29:41;;;;;;;0.80;0.60;;;;;;;8.96;80.56;102552.66;5036279;28;114120;-30
2022/10/09 03:32:07;;;;;;;2.00;1.00;;;;;;;8.99;80.38;102543.63;5037001;27;96562;-30
2022/10/09 03:34:32;;;;;;;2.95;0.85;;;;;;;8.98;80.63;102547.22;5035496;28;96961;-30
2022/10/09 03:36:58;;;;;;;2.58;0.70;;;;;;;9.00;81.19;102554.38;5036388;27;103511;-30
2022/10/09 03:39:23;;;;;;;1.83;0.93;;;;;;;9.02;80.58;102557.03;5036327;27;98752;-30
2022/10/09 03:41:48;;;;;;;1.48;0.85;;;;;;;8.98;81.31;102541.81;5036958;28;96513;-30
2022/10/09 03:44:14;;;;;;;2.28;1.17;;;;;;;8.98;81.28;102541.81;5037412;28;98169;-31
2022/10/09 03:46:39;;;;;;;1.67;1.02;;;;;;;8.96;81.27;102547.25;5036022;27;99344;-30
2022/10/09 03:49:04;;;;;;;4.60;1.17;;;;;;;8.98;81.34;102547.22;5036020;28;99162;-30
2022/10/09 03:51:30;;;;;;;1.33;0.90;;;;;;;8.98;81.54;102542.72;5036188;27;97393;-31
2022/10/09 03:53:55;;;;;;;3.03;1.17;;;;;;;9.01;81.30;102557.94;5036878;27;96755;-30
2022/10/09 03:56:20;;;;;;;1.17;0.68;;;;;;;9.00;81.68;102551.66;5035711;28;115787;-31
2022/10/09 03:58:46;;;;;;;5.13;1.30;;;;;;;9.00;80.84;102548.09;5036115;27;108974;-31
2022/10/09 04:01:11;;;;;;;3.58;1.67;;;;;;;9.00;81.21;102556.19;5036781;27;96666;-31
2022/10/09 04:03:36;;;;;;;5.35;1.25;;;;;;;9.01;81.37;102556.16;5035913;28;106300;-31
2022/10/09 04:06:02;;;;;;;4.57;1.88;;;;;;;8.95;81.10;102547.31;5035976;27;98114;-30
2022/10/09 04:08:27;;;;;;;6.93;2.55;;;;;;;8.93;81.67;102547.34;5035835;28;99307;-31
2022/10/09 04:10:57;;;;;;;8.13;2.20;;;;;;;8.91;81.47;102552.81;5036268;27;96510;-31
2022/10/09 04:13:23;;;;;;;5.05;1.77;;;;;;;8.93;81.83;102550.94;5034945;28;96923;-32
2022/10/09 04:15:50;;;;;;;5.72;1.92;;;;;;;8.92;81.40;102549.19;5035410;27;97464;-31
2022/10/09 04:18:15;;;;;;;3.05;1.33;;;;;;;8.95;81.46;102553.59;5034552;28;101003;-31
2022/10/09 04:20:47;;;;;;;2.95;1.23;;;;;;;8.90;81.34;102551.03;5035412;27;107278;-31
2022/10/09 04:23:12;;;;;;;;;;;;;;;8.92;82.15;102554.59;5035356;28;96759;-30
2022/10/09 04:25:37;;;;;;;0.63;0.45;;;;;;;8.91;81.46;102555.53;5036262;28;97409;-31
2022/10/09 04:28:03;;;;;;;1.13;0.77;;;;;;;8.95;81.51;102558.13;5035180;28;121437;-30
2022/10/09 04:30:28;;;;;;;1.40;1.08;;;;;;;8.93;81.26;102548.22;5036134;27;96480;-30
2022/10/09 04:32:53;;;;;;;2.28;0.85;;;;;;;8.93;81.29;102547.34;5035540;27;106475;-30
2022/10/09 04:35:18;;;;;;;1.83;1.25;;;;;;;8.93;81.90;102544.66;5035562;27;106305;-30
2022/10/09 04:37:44;;;;;;;1.58;1.05;;;;;;;8.89;81.40;102535.75;5035196;28;116692;-30
2022/10/09 04:40:09;;;;;;;4.95;1.00;;;;;;;8.88;80.87;102531.25;5034987;27;98307;-30
2022/10/09 04:42:35;;;;;;;2.08;1.20;;;;;;;8.87;81.09;102532.22;5036035;27;96784;-30
2022/10/09 04:45:00;;;;;;;5.05;0.90;;;;;;;8.88;81.09;102533.09;5035390;27;97869;-31
2022/10/09 04:47:25;;;;;;;1.40;0.77;;;;;;;8.86;80.66;102525.00;5035489;28;104759;-31
2022/10/09 04:49:51;;;;;;;1.83;1.00;;;;;;;8.85;81.45;102523.25;5035263;28;109418;-30
2022/10/09 04:52:16;;;;;;;3.03;1.05;;;;;;;8.83;81.29;102525.09;5035649;27;96803;-30
2022/10/09 04:54:41;;;;;;;2.05;1.10;;;;;;;8.82;81.14;102530.53;5034959;27;114801;-30
2022/10/09 04:57:07;;;;;;;5.35;1.33;;;;;;;8.79;81.38;102530.63;5035438;27;102156;-31
2022/10/09 04:59:32;;;;;;;2.55;1.08;;;;;;;8.78;81.68;102535.16;5035265;28;107538;-31
2022/10/09 05:01:57;;;;;;;2.25;1.27;;;;;;;8.77;81.47;102538.81;5035416;27;96804;-30
2022/10/09 05:04:22;;;;;;;3.80;1.02;;;;;;;8.75;81.12;102535.25;5033958;27;119196;-30
2022/10/09 05:06:48;;;;;;;3.78;1.70;;;;;;;8.74;81.51;102533.44;5034674;28;119624;-30
2022/10/09 05:09:13;;;;;;;2.90;1.20;;;;;;;8.71;81.69;102536.25;5035332;27;96640;-30
2022/10/09 05:11:38;;;;;;;4.68;1.50;;;;;;;8.67;81.47;102521.91;5034931;28;110247;-30
2022/10/09 05:14:03;;;;;;;5.88;1.40;;;;;;;8.67;81.93;102529.13;5034659;28;104531;-30
2022/10/09 05:16:30;;;;;;;1.60;1.05;;;;;;;8.64;81.66;102526.53;5034891;27;99328;-30
2022/10/09 05:18:57;;;;;;;2.00;1.23;;;;;;;8.66;81.54;102527.38;5035260;27;96672;-31
2022/10/09 05:21:24;;;;;;;4.78;0.98;;;;;;;8.62;81.76;102522.97;5034194;28;96704;-30
2022/10/09 05:23:52;;;;;;;3.95;1.02;;;;;;;8.62;81.78;102522.97;5035059;27;96884;-30
2022/10/09 05:26:20;;;;;;;4.18;1.33;;;;;;;8.59;81.88;102529.34;5033616;28;101237;-32
2022/10/09 05:28:46;;;;;;;1.38;0.95;;;;;;;8.59;81.46;102528.47;5034597;28;96597;-31
2022/10/09 05:31:24;;;;;;;2.88;1.52;;;;;;;8.57;81.92;102515.00;5033907;28;96891;-30
2022/10/09 05:33:50;;;;;;;2.47;1.10;;;;;;;8.57;81.42;102525.78;5035204;27;97866;-31
2022/10/09 05:36:16;;;;;;;2.22;1.13;;;;;;;8.58;81.40;102522.19;5033360;28;100829;-30
2022/10/09 05:38:41;;;;;;;1.42;0.80;;;;;;;8.57;81.43;102514.13;5033747;28;96578;-31
2022/10/09 05:41:10;;;;;;;2.08;1.15;;;;;;;8.54;81.36;102519.59;5034869;27;96806;-31
2022/10/09 05:43:38;;;;;;;2.47;1.00;;;;;;;8.55;81.39;102524.06;5033013;28;100813;-30
2022/10/09 05:46:11;;;;;;;3.35;0.95;;;;;;;8.53;81.11;102524.09;5033026;28;101058;-31
2022/10/09 05:48:42;;;;;;;1.20;0.90;;;;;;;8.50;80.98;102522.38;5034917;27;96476;-30
2022/10/09 05:51:07;;;;;;;4.13;1.00;;;;;;;8.52;81.13;102529.56;5035023;27;96708;-30
2022/10/09 05:53:33;;;;;;;3.30;1.35;;;;;;;8.49;80.99;102530.53;5033999;27;99169;-31
2022/10/09 05:56:14;;;;;;;2.08;1.35;;;;;;;8.49;80.99;102527.81;5032947;28;100833;-32
2022/10/09 05:58:39;;;;;;;1.58;1.02;;;;;;;8.47;81.09;102519.75;5033622;28;96614;-30
2022/10/09 06:01:05;;;;;;;2.90;1.10;;;;;;;8.46;81.31;102534.19;5034741;27;96958;-30
2022/10/09 06:03:30;;;;;;;1.33;0.85;;;;;;;8.48;81.18;102521.50;5034660;27;97903;-31
2022/10/09 06:06:04;;;;;;;1.55;0.77;;;;;;;8.46;81.26;102523.41;5034517;28;97393;-30
2022/10/09 06:08:34;;;;;;;4.95;1.58;;;;;;;8.46;81.26;102528.78;5033402;28;96670;-30
2022/10/09 06:11:30;;;;;;;1.25;0.90;;;;;;;8.49;81.58;102522.44;5033592;28;96832;-30
2022/10/09 06:13:57;;;;;;;3.17;1.38;;;;;;;8.48;81.48;102526.91;5021574;27;97611;-30
2022/10/09 06:16:28;;;;;;;2.03;1.17;;;;;;;8.46;81.32;102522.47;5032945;28;100773;-32
2022/10/09 06:18:54;;;;;;;1.98;1.30;;;;;;;8.46;81.41;102525.19;5032553;28;96540;-30
2022/10/09 06:21:20;;;;;;;3.50;1.65;;;;;;;8.47;81.38;102518.88;5033228;28;96873;-31
2022/10/09 06:23:50;;;;;;;2.42;1.30;;;;;;;8.45;81.40;102526.13;5034319;28;97968;-30
2022/10/09 06:26:16;;;;;;;2.60;1.15;;;;;;;8.48;81.58;102526.03;5032888;28;101302;-30
2022/10/09 06:28:41;;;;;;;2.35;0.98;;;;;;;8.46;81.56;102522.47;5034525;27;96486;-30
2022/10/09 06:31:12;;;;;;;2.38;1.30;;;;;;;8.48;81.68;102523.34;5036688;27;96839;-32
2022/10/09 06:33:40;;;;;;;2.15;1.55;;;;;;;8.48;81.48;102526.91;5036290;28;101111;-31
2022/10/09 06:36:23;;;;;;;2.17;1.35;;;;;;;8.50;81.43;102525.06;5036414;28;100772;-30
2022/10/09 06:38:50;;;;;;;5.65;1.35;;;;;;;8.50;81.34;102525.06;5036697;28;96833;-31
2022/10/09 06:41:20;;;;;;;2.47;1.15;;;;;;;8.52;81.58;102521.47;5037641;27;96858;-30
2022/10/09 06:43:55;;;;;;;2.80;1.58;;;;;;;8.51;82.02;102528.69;5035627;27;101057;-30
2022/10/09 06:46:24;;;;;;;5.97;1.55;;;;;;;8.50;81.99;102527.75;5035326;28;100821;-30
2022/10/09 06:48:49;;;;;;;4.85;1.95;;;;;;;8.55;81.67;102527.66;5036374;28;96649;-31
2022/10/09 06:51:19;;;;;;;5.30;1.98;;;;;;;8.56;81.77;102529.44;5037974;27;96817;-31
2022/10/09 06:53:48;;;;;;;2.45;1.80;;;;;;;8.61;81.46;102529.31;5036052;28;101003;-31
2022/10/09 06:56:14;;;;;;;7.05;1.83;;;;;;;8.66;81.99;102530.09;5035830;28;101098;-31
2022/10/09 06:58:40;;;;;;;2.70;1.73;;;;;;;8.66;81.37;102533.66;5035950;28;96580;-30
2022/10/09 07:01:17;;;;;;;9.18;1.92;;;;;;;8.66;81.73;102530.97;5037767;27;96873;-30
2022/10/09 07:03:45;;;;;;;4.53;1.95;;;;;;;8.69;81.79;102530.00;5037099;27;100060;-30
2022/10/09 07:06:20;;;;;;;3.13;2.08;;;;;;;8.72;81.57;102535.31;5035618;28;101296;-30
2022/10/09 07:08:48;;;;;;;8.02;1.95;;;;;;;8.73;81.45;102528.13;5035771;28;96682;-31
2022/10/09 07:11:20;;;;;;;2.05;1.38;;;;;;;8.80;81.61;102529.72;5037303;27;96819;-31
2022/10/09 07:13:46;;;;;;;4.40;2.05;;;;;;;8.81;81.63;102517.97;5037274;27;97897;-30
2022/10/09 07:16:11;;;;;;;3.70;1.60;;;;;;;8.88;81.46;102530.38;5035546;28;100448;-31
2022/10/09 07:18:37;;;;;;;6.70;2.03;;;;;;;8.90;81.05;102534.81;5037299;28;99696;-31
2022/10/09 07:21:04;;;;;;;3.50;2.10;;;;;;;8.93;81.49;102525.72;5035978;28;96836;-31
2022/10/09 07:23:31;;;;;;;4.07;1.90;;;;;;;8.91;81.25;102531.19;5035449;28;101047;-32
2022/10/09 07:25:57;;;;;;;4.13;1.85;;;;;;;8.97;80.96;102534.66;5035787;28;100904;-31
2022/10/09 07:28:24;;;;;;;2.38;1.58;;;;;;;9.01;80.66;102530.91;5035635;28;96563;-31
2022/10/09 07:30:49;;;;;;;5.55;1.75;;;;;;;9.03;80.75;102535.34;5035804;28;96902;-31
2022/10/09 07:33:14;;;;;;;3.88;1.65;;;;;;;9.04;80.70;102534.44;5034692;28;109570;-30
2022/10/09 07:35:40;;;;;;;3.88;1.80;;;;;;;9.12;80.29;102534.22;5035917;28;118998;-31
2022/10/09 07:38:05;;;;;;;11.07;1.77;;;;;;;9.11;80.52;102522.53;5036877;27;96850;-30
2022/10/09 07:40:34;;;;;;;3.50;1.95;;;;;;;9.14;80.95;102522.44;5036856;27;96797;-30
2022/10/09 07:43:00;;;;;;;5.40;1.95;;;;;;;9.21;80.31;102533.97;5035487;27;97945;-32
2022/10/09 07:45:26;;;;;;;7.20;1.65;;;;;;;9.24;80.76;102523.03;5036273;28;97981;-31
2022/10/09 07:47:51;;;;;;;4.05;2.38;;;;;;;9.30;80.23;102522.00;5036609;28;96521;-30
2022/10/09 07:50:16;;;;;;;4.07;1.83;;;;;;;9.32;80.80;102528.25;5036980;28;105258;-31
2022/10/09 07:52:42;;;;;;;3.88;2.05;;;;;;;9.34;80.32;102512.84;5036551;28;97498;-31
2022/10/09 07:55:08;;;;;;;2.83;1.58;;;;;;;9.36;80.94;102517.28;5036335;27;99276;-31
2022/10/09 07:57:33;;;;;;;2.65;1.42;;;;;;;9.44;80.30;102518.84;5036218;28;96520;-30
2022/10/09 07:59:58;;;;;;;1.95;1.23;;;;;;;9.47;79.93;102514.25;5036002;28;109088;-31
2022/10/09 08:02:24;;;;;;;3.00;1.52;;;;;;;9.51;79.72;102517.75;5035608;28;116297;-30
2022/10/09 08:04:49;;;;;;;5.10;1.77;;;;;;;9.55;80.00;102516.72;5035631;27;114750;-30
2022/10/09 08:07:14;;;;;;;2.13;1.42;;;;;;;9.59;80.68;102518.41;5035813;28;109845;-30
2022/10/09 08:09:40;;;;;;;2.25;1.63;;;;;;;9.65;80.19;102517.31;5036693;28;96795;-30
2022/10/09 08:12:05;;;;;;;6.55;1.95;;;;;;;9.69;80.05;102514.47;5034652;28;101388;-30
2022/10/09 08:14:30;;;;;;;2.22;1.45;;;;;;;9.75;79.80;102511.59;5035880;28;117134;-31
2022/10/09 08:16:56;;;;;;;3.78;1.33;;;;;;;9.83;79.52;102510.47;5036292;27;96547;-32
2022/10/09 08:19:21;;;;;;;2.25;1.45;;;;;;;9.84;79.88;102506.81;5036512;27;96774;-30
2022/10/09 08:21:46;;;;;;;2.10;1.45;;;;;;;9.88;79.46;102505.78;5035613;27;97822;-30
2022/10/09 08:24:12;;;;;;;2.08;1.48;;;;;;;9.95;79.34;102515.50;5035763;27;99164;-30
2022/10/09 08:26:38;;;;;;;2.28;1.15;;;;;;;9.95;79.22;102500.13;5034830;28;96610;-30
2022/10/09 08:29:07;;;;;;;5.13;1.20;;;;;;;9.99;79.03;102499.09;5036115;27;96733;-32
2022/10/09 08:31:32;;;;;;;5.28;1.30;;;;;;;10.08;79.32;102505.13;5034317;28;101144;-31
2022/10/09 08:34:00;;;;;;;5.95;1.27;;;;;;;10.11;79.22;102505.06;5035544;28;99188;-31
2022/10/09 08:36:26;;;;;;;3.63;1.27;;;;;;;10.16;79.00;102501.25;5034393;28;96824;-30
2022/10/09 08:38:52;;;;;;;1.50;1.05;;;;;;;10.21;78.96;102506.50;5036572;27;96856;-30
2022/10/09 08:41:38;;;;;;;1.85;1.20;;;;;;;10.29;78.67;102507.16;5034076;28;98998;-30
2022/10/09 08:44:10;;;;;;;2.28;1.10;;;;;;;10.38;78.94;102498.72;5035715;27;98905;-30
2022/10/09 08:46:46;;;;;;;5.20;1.00;;;;;;;10.47;78.63;102494.81;5033562;28;96996;-30
2022/10/09 08:49:46;;;;;;;1.92;1.05;;;;;;;10.54;78.54;102488.25;5035733;28;96692;-32
2022/10/09 08:52:26;;;;;;;2.63;1.30;;;;;;;10.57;78.88;102482.72;5032027;27;98092;-30
2022/10/09 08:54:56;;;;;;;5.65;1.10;;;;;;;10.65;78.29;102481.56;5035366;27;99631;-30
2022/10/09 08:57:22;;;;;;;2.75;1.23;;;;;;;10.74;78.04;102484.81;5034082;28;96707;-31
2022/10/09 08:59:47;;;;;;;3.00;1.00;;;;;;;10.83;77.89;102483.63;5034388;28;96869;-30
2022/10/09 09:02:25;;;;;;;2.22;1.17;;;;;;;10.93;77.31;102486.88;5034274;28;97903;-30
2022/10/09 09:05:11;;;;;;;1.77;1.05;;;;;;;11.01;77.23;102487.47;5034326;28;100731;-30
2022/10/09 09:08:15;;;;;;;10.27;1.30;;;;;;;11.09;77.37;102484.50;5035805;28;96623;-30
2022/10/09 09:11:16;;;;;;;2.80;0.93;;;;;;;11.22;76.30;102475.81;4980827;27;96850;-30
2022/10/09 09:13:53;;;;;;;6.55;0.90;;;;;;;11.35;75.46;102478.97;5034386;28;98944;-30
2022/10/09 09:16:46;;;;;;;2.83;1.20;;;;;;;11.47;75.41;102474.88;5034934;27;99244;-30
2022/10/09 09:19:33;;;;;;;1.33;0.90;;;;;;;11.58;74.83;102472.63;5033977;28;96583;-32
2022/10/09 09:21:58;;;;;;;2.25;0.95;;;;;;;11.74;74.97;102469.31;5035600;27;96628;-31
2022/10/09 09:24:38;;;;;;;2.95;1.10;;;;;;;11.88;74.84;102464.22;5033309;28;100848;-30
2022/10/09 09:27:14;;;;;;;1.77;0.90;;;;;;;12.05;73.84;102458.97;5033618;28;101336;-30
2022/10/09 09:29:49;;;;;;;3.90;0.85;;;;;;;12.27;73.47;102452.63;5033931;28;96660;-31
2022/10/09 09:32:20;;;;;;;2.65;0.73;;;;;;;12.48;72.76;102451.69;5034309;28;96667;-30
2022/10/09 09:34:47;;;;;;;3.23;1.13;;;;;;;12.69;72.03;102457.16;5033299;28;101301;-30
2022/10/09 09:37:12;;;;;;;1.77;0.88;;;;;;;12.89;72.01;102443.50;5033265;28;101525;-31
2022/10/09 09:39:39;;;;;;;1.98;0.77;;;;;;;13.14;71.54;102435.13;5034748;27;96523;-31
2022/10/09 09:42:19;;;;;;;4.03;0.95;;;;;;;13.51;70.53;102446.13;5033636;28;96800;-30
2022/10/09 09:44:57;;;;;;;1.02;0.65;;;;;;;13.79;69.59;102440.22;5032670;28;100742;-31
2022/10/09 09:47:33;;;;;;;5.18;0.88;;;;;;;14.10;67.42;102430.50;5034660;28;97240;-30
2022/10/09 09:50:01;;;;;;;2.40;0.75;;;;;;;14.27;66.83;102419.59;5033524;28;96580;-31
2022/10/09 09:52:33;;;;;;;4.18;1.00;;;;;;;14.57;66.83;102419.88;5033521;28;96924;-30
2022/10/09 09:54:58;;;;;;;3.13;0.98;;;;;;;14.88;67.21;102414.63;5033170;28;100892;-30
2022/10/09 09:57:33;;;;;;;1.60;0.80;;;;;;;15.06;65.70;102414.50;5034986;28;97922;-30
2022/10/09 10:00:08;;;;;;;1.77;0.65;;;;;;;15.25;63.38;102411.63;5033487;28;96637;-30
2022/10/09 10:02:34;;;;;;;2.35;0.95;;;;;;;15.37;63.21;102406.41;5033451;28;96799;-30
2022/10/09 10:05:04;;;;;;;2.47;0.93;;;;;;;15.40;60.68;102407.13;5034642;27;104239;-30
2022/10/09 10:07:35;;;;;;;1.30;0.70;;;;;;;15.53;63.25;102399.09;5038124;27;99371;-29
2022/10/09 10:10:14;;;;;;;3.05;0.90;;;;;;;15.67;61.33;102393.72;5037163;28;96699;-31
2022/10/09 10:12:42;;;;;;;1.90;0.77;;;;;;;15.78;60.69;102401.34;5038568;28;96541;-30
2022/10/09 10:15:21;;;;;;;1.35;0.85;;;;;;;15.95;60.98;102394.88;5036202;28;101109;-30
2022/10/09 10:17:53;;;;;;;2.70;0.63;;;;;;;16.01;60.65;102391.75;5037857;27;97905;-29
2022/10/09 10:20:19;;;;;;;2.42;0.77;;;;;;;16.23;58.84;102390.47;5036951;28;96674;-30
2022/10/09 10:22:55;;;;;;;4.13;0.98;;;;;;;16.39;59.82;102384.94;5038535;27;96787;-31
2022/10/09 10:25:24;;;;;;;4.32;0.90;;;;;;;16.57;59.40;102394.75;5038104;27;97733;-31
2022/10/09 10:27:54;;;;;;;2.30;1.08;;;;;;;16.65;58.76;102386.94;5036402;27;100759;-30
2022/10/09 10:30:20;;;;;;;2.08;1.08;;;;;;;16.61;58.10;102387.22;5036223;28;96643;-31
2022/10/09 10:32:51;;;;;;;2.80;0.98;;;;;;;16.73;56.61;102373.66;5037977;27;96865;-30
2022/10/09 10:35:38;;;;;;;5.00;1.40;;;;;;;16.71;57.92;102382.94;5037687;27;98543;-30
2022/10/09 10:38:18;;;;;;;2.88;1.15;;;;;;;16.85;58.37;102382.09;5036886;28;99260;-31
2022/10/09 10:41:07;;;;;;;1.60;1.15;;;;;;;17.18;57.82;102368.09;5036438;27;96583;-30
2022/10/09 10:43:51;;;;;;;3.13;1.27;;;;;;;17.27;57.46;102361.13;5028939;28;96858;-32
2022/10/09 10:46:21;;;;;;;5.70;1.40;;;;;;;17.32;56.22;102368.06;5037156;28;99520;-30
2022/10/09 10:48:46;;;;;;;4.85;1.42;;;;;;;17.29;56.06;102367.41;5037550;28;99780;-30
2022/10/09 10:51:34;;;;;;;3.17;1.05;;;;;;;17.41;54.87;102348.28;5037821;28;96552;-30
2022/10/09 10:54:19;;;;;;;2.25;0.68;;;;;;;17.58;55.05;102351.75;5036237;28;96814;-31
2022/10/09 10:56:49;;;;;;;1.70;0.93;;;;;;;17.78;55.54;102342.16;5037021;28;97450;-30
2022/10/09 10:59:50;;;;;;;2.58;1.33;;;;;;;17.79;54.49;102336.59;5036193;28;101224;-30
2022/10/09 11:02:19;;;;;;;1.55;0.85;;;;;;;17.58;54.05;102325.22;5033987;28;96877;-31
2022/10/09 11:05:09;;;;;;;2.95;1.20;;;;;;;17.67;53.51;102321.00;5036147;28;96947;-31
2022/10/09 11:07:57;;;;;;;1.90;0.88;;;;;;;17.91;53.94;102323.94;5037017;27;99286;-31
2022/10/09 11:10:25;;;;;;;1.20;0.70;;;;;;;17.92;52.20;102308.38;5037335;28;97862;-30
2022/10/09 11:13:03;;;;;;;1.63;0.98;;;;;;;18.08;53.47;102306.31;5037361;27;96604;-30
2022/10/09 11:16:06;;;;;;;3.75;0.73;;;;;;;18.24;52.98;102303.38;5035723;28;96780;-30
2022/10/09 11:19:04;;;;;;;1.70;0.95;;;;;;;18.40;51.08;102297.66;5036946;28;99559;-30
2022/10/09 11:21:48;;;;;;;1.75;1.02;;;;;;;18.47;53.30;102301.72;5034536;28;97397;-30
2022/10/09 11:24:16;;;;;;;1.25;0.93;;;;;;;18.49;51.78;102299.75;5036991;28;96594;-32
2022/10/09 11:27:00;;;;;;;2.92;1.08;;;;;;;18.48;50.60;102289.78;5037362;27;96751;-30
2022/10/09 11:29:36;;;;;;;3.67;1.05;;;;;;;18.53;50.93;102284.81;5035332;28;100813;-29
2022/10/09 11:32:23;;;;;;;2.65;0.98;;;;;;;18.46;50.98;102276.16;5035372;28;101518;-30
2022/10/09 11:35:02;;;;;;;2.10;1.30;;;;;;;18.51;51.92;102281.31;5035667;28;96719;-29
2022/10/09 11:37:35;;;;;;;4.35;1.27;;;;;;;18.56;52.00;102270.88;5035317;27;96803;-30
2022/10/09 11:40:20;;;;;;;1.60;1.00;;;;;;;18.74;52.29;102267.78;5035007;27;100997;-30
2022/10/09 11:42:55;;;;;;;3.75;1.20;;;;;;;18.79;50.57;102268.38;5037175;28;97385;-29
2022/10/09 11:45:30;;;;;;;3.42;0.82;;;;;;;18.85;50.13;102259.66;5034841;28;96798;-29